createdAt,value
2022-08-05T00:00:52.397Z,74.41
2022-08-05T00:01:54.186Z,74.77
2022-08-05T00:02:55.707Z,75.12
2022-08-05T00:03:57.664Z,75.23
2022-08-05T00:04:59.221Z,75.37
2022-08-05T00:06:04.636Z,75.54
2022-08-05T00:07:27.292Z,75.29
2022-08-05T00:08:04.901Z,75.58
2022-08-05T00:09:12.603Z,75.49
2022-08-05T00:10:07.834Z,75.76
2022-08-05T00:11:20.661Z,75.99
2022-08-05T00:12:13.074Z,75.98
2022-08-05T00:13:18.790Z,76.55
2022-08-05T00:14:17.115Z,76.38
2022-08-05T00:15:55.374Z,76.26
2022-08-05T00:16:18.322Z,75.78
2022-08-05T00:17:20.241Z,75.96
2022-08-05T00:18:22.804Z,76.12
2022-08-05T00:19:24.996Z,76.59
2022-08-05T00:20:28.907Z,76.77
2022-08-05T00:21:26.996Z,76.78
2022-08-05T00:22:28.706Z,77.47
2022-08-05T00:23:44.276Z,76.96
2022-08-05T00:24:32.269Z,76.42
2022-08-05T00:25:41.581Z,75.33
2022-08-05T00:25:49.127Z,75.05
2022-08-05T00:26:52.167Z,73.89
2022-08-05T00:27:52.556Z,73.5
2022-08-05T00:28:54.277Z,73.67
2022-08-05T00:29:56.423Z,73.8
2022-08-05T00:30:57.738Z,74.01
2022-08-05T00:32:12.551Z,73.29
2022-08-05T00:33:01.210Z,73.36
2022-08-05T00:34:54.815Z,73.25
2022-08-05T00:35:07.483Z,73.8
2022-08-05T00:36:16.550Z,73.81
2022-08-05T00:37:13.139Z,73.77
2022-08-05T00:38:09.886Z,73.79
2022-08-05T00:39:13.824Z,74.15
2022-08-05T00:40:13.352Z,74.38
2022-08-05T00:41:15.088Z,75.1
2022-08-05T00:42:31.515Z,76.23
2022-08-05T00:43:18.559Z,75.6
2022-08-05T00:44:20.892Z,75.21
2022-08-05T00:45:38.057Z,76.04
2022-08-05T00:46:42.575Z,76.45
2022-08-05T00:47:25.497Z,76.63
2022-08-05T00:48:27.535Z,76.8
2022-08-05T00:49:32.420Z,76.91
2022-08-05T00:50:30.693Z,77.98
2022-08-05T00:51:50.251Z,78.11
2022-08-05T00:52:34.172Z,78.83
2022-08-05T00:54:00.133Z,79.05
2022-08-05T00:54:37.645Z,78.83
2022-08-05T00:55:42.815Z,79.91
2022-08-05T00:56:41.117Z,80.01
2022-08-05T00:57:57.879Z,79.98
2022-08-05T00:58:44.994Z,81.8
2022-08-05T00:59:46.332Z,82
2022-08-05T01:00:50.340Z,80.93
2022-08-05T01:01:49.958Z,81.37
2022-08-05T01:02:51.546Z,85.12
2022-08-05T01:03:53.255Z,85.78
2022-08-05T01:04:54.972Z,85.5
2022-08-05T01:05:56.721Z,86.89
2022-08-05T01:06:58.509Z,88.23
2022-08-05T01:08:41.364Z,89.32
2022-08-05T01:09:03.129Z,87.68
2022-08-05T01:10:03.653Z,88.46
2022-08-05T01:11:05.381Z,89.95
2022-08-05T01:12:18.120Z,90.24
2022-08-05T01:13:13.225Z,90.64
2022-08-05T01:14:10.663Z,92.24
2022-08-05T01:15:35.011Z,92.48
2022-08-05T01:16:14.062Z,94.39
2022-08-05T01:17:15.799Z,96.86
2022-08-05T01:18:17.516Z,99.35
2022-08-05T01:19:19.263Z,100
2022-08-05T01:20:22.436Z,100
2022-08-05T01:21:23.178Z,100
2022-08-05T01:22:27.979Z,100
2022-08-05T01:23:26.207Z,100
2022-08-05T01:24:30.080Z,100
2022-08-05T01:25:40.866Z,100
2022-08-05T01:26:31.418Z,100
2022-08-05T01:27:33.220Z,100
2022-08-05T01:28:34.972Z,100
2022-08-05T01:29:36.603Z,100
2022-08-05T01:30:38.365Z,100
2022-08-05T01:31:42.614Z,100
2022-08-05T01:32:41.806Z,100
2022-08-05T01:33:49.256Z,100
2022-08-05T01:34:45.288Z,100
2022-08-05T01:35:51.215Z,100
2022-08-05T01:36:48.857Z,100
2022-08-05T01:37:50.495Z,100
2022-08-05T01:38:52.420Z,100
2022-08-05T01:39:53.996Z,100
2022-08-05T01:40:55.704Z,100
2022-08-05T01:41:57.473Z,100
2022-08-05T01:42:59.156Z,100
2022-08-05T01:44:00.890Z,100
2022-08-05T01:45:03.143Z,100
2022-08-05T01:46:07.549Z,100
2022-08-05T01:47:06.817Z,100
2022-08-05T01:48:10.278Z,100
2022-08-05T01:49:12.206Z,100
2022-08-05T01:50:15.049Z,100
2022-08-05T01:51:13.153Z,100
2022-08-05T01:52:17.957Z,100
2022-08-05T01:53:16.514Z,100
2022-08-05T01:54:18.236Z,100
2022-08-05T01:55:19.980Z,100
2022-08-05T01:58:10.550Z,100
2022-08-05T01:58:12.459Z,100
2022-08-05T01:58:40.651Z,100
2022-08-05T01:59:26.924Z,100
2022-08-05T02:00:30.083Z,100
2022-08-05T02:01:37.933Z,100
2022-08-05T02:02:32.195Z,100
2022-08-05T02:03:34.149Z,100
2022-08-05T02:04:35.590Z,100
2022-08-05T02:05:37.338Z,100
2022-08-05T02:06:39.369Z,100
2022-08-05T02:07:40.794Z,100
2022-08-05T02:08:54.943Z,100
2022-08-05T02:09:44.264Z,100
2022-08-05T02:10:46.009Z,100
2022-08-05T02:11:48.157Z,100
2022-08-05T02:12:50.942Z,100
2022-08-05T02:13:53.879Z,100
2022-08-05T02:14:53.210Z,100
2022-08-05T02:15:54.677Z,100
2022-08-05T02:16:56.412Z,100
2022-08-05T02:18:31.170Z,100
2022-08-05T02:18:59.895Z,100
2022-08-05T02:20:01.601Z,100
2022-08-05T02:21:06.395Z,100
2022-08-05T02:22:05.094Z,100
2022-08-05T02:23:06.808Z,100
2022-08-05T02:24:08.547Z,100
2022-08-05T02:25:12.518Z,100
2022-08-05T02:26:12.015Z,100
2022-08-05T02:27:13.885Z,100
2022-08-05T02:28:15.485Z,100
2022-08-05T02:29:21.487Z,100
2022-08-05T02:30:18.953Z,100
2022-08-05T02:31:21.281Z,100
2022-08-05T02:32:24.196Z,100
2022-08-05T02:33:36.009Z,100
2022-08-05T02:34:26.039Z,100
2022-08-05T02:35:33.005Z,100
2022-08-05T02:36:31.593Z,100
2022-08-05T02:37:32.047Z,100
2022-08-05T02:38:35.409Z,100
2022-08-05T02:39:34.620Z,100
2022-08-05T02:40:36.348Z,100
2022-08-05T02:41:58.241Z,100
2022-08-05T02:42:39.784Z,100
2022-08-05T02:44:06.184Z,100
2022-08-05T02:44:43.242Z,100
2022-08-05T02:45:51.611Z,100
2022-08-05T02:46:59.764Z,100
2022-08-05T02:48:06.537Z,100
2022-08-05T02:48:50.188Z,100
2022-08-05T02:49:51.976Z,100
2022-08-05T02:50:53.656Z,100
2022-08-05T02:52:03.823Z,100
2022-08-05T02:52:57.126Z,100
2022-08-05T02:54:03.339Z,100
2022-08-05T02:55:01.996Z,100
2022-08-05T02:56:02.442Z,100
2022-08-05T02:57:09.729Z,100
2022-08-05T02:58:11.880Z,100
2022-08-05T02:59:07.517Z,100
2022-08-05T03:00:09.258Z,100
2022-08-05T03:01:11.075Z,100
2022-08-05T03:02:12.783Z,100
2022-08-05T03:03:14.461Z,100
2022-08-05T03:04:16.200Z,100
2022-08-05T03:05:17.944Z,100
2022-08-05T03:06:55.890Z,100
2022-08-05T03:08:01.007Z,100
2022-08-05T03:08:29.583Z,100
2022-08-05T03:09:27.245Z,100
2022-08-05T03:10:26.749Z,100
2022-08-05T03:11:57.028Z,100
2022-08-05T03:12:30.091Z,100
2022-08-05T03:13:51.487Z,100
2022-08-05T03:14:33.566Z,100
2022-08-05T03:15:35.360Z,100
2022-08-05T03:16:37.031Z,100
2022-08-05T03:17:41.782Z,100
2022-08-05T03:18:42.077Z,100
2022-08-05T03:19:42.314Z,100
2022-08-05T03:20:48.716Z,100
2022-08-05T03:21:48.899Z,100
2022-08-05T03:22:50.017Z,100
2022-08-05T03:23:49.229Z,100
2022-08-05T03:24:52.249Z,100
2022-08-05T03:26:04.818Z,100
2022-08-05T03:26:54.372Z,100
2022-08-05T03:27:58.983Z,100
2022-08-05T03:28:57.945Z,100
2022-08-05T03:30:08.542Z,100
2022-08-05T03:31:01.479Z,100
2022-08-05T03:32:03.042Z,100
2022-08-05T03:33:05.767Z,100
2022-08-05T03:34:06.626Z,100
2022-08-05T03:35:08.935Z,100
2022-08-05T03:36:12.158Z,100
2022-08-05T03:37:11.723Z,100
2022-08-05T03:38:14.345Z,100
2022-08-05T03:39:20.285Z,100
2022-08-05T03:40:24.339Z,100
2022-08-05T03:41:18.738Z,100
2022-08-05T03:42:20.392Z,100
2022-08-05T03:44:09.901Z,100
2022-08-05T03:44:23.897Z,100
2022-08-05T03:45:27.069Z,100
2022-08-05T03:46:29.761Z,100
2022-08-05T03:47:30.536Z,100
2022-08-05T03:48:30.910Z,100
2022-08-05T03:49:51.425Z,100
2022-08-05T03:50:34.262Z,100
2022-08-05T03:52:48.303Z,100
2022-08-05T03:55:00.377Z,100
2022-08-05T03:55:34.716Z,100
2022-08-05T03:55:50.834Z,100
2022-08-05T03:56:05.950Z,100
2022-08-05T03:56:44.697Z,100
2022-08-05T03:57:46.647Z,100
2022-08-05T03:58:48.139Z,100
2022-08-05T03:59:54.815Z,100
2022-08-05T04:00:52.555Z,100
2022-08-05T04:01:53.484Z,100
2022-08-05T04:02:58.718Z,100
2022-08-05T04:04:09.114Z,100
2022-08-05T04:04:58.539Z,100
2022-08-05T04:06:00.335Z,100
2022-08-05T04:07:02.098Z,100
2022-08-05T04:08:03.746Z,100
2022-08-05T04:09:05.517Z,100
2022-08-05T04:10:07.212Z,100
2022-08-05T04:11:09.990Z,100
2022-08-05T04:12:24.585Z,100
2022-08-05T04:13:12.533Z,100
2022-08-05T04:14:18.128Z,100
2022-08-05T04:15:15.878Z,100
2022-08-05T04:16:24.408Z,100
2022-08-05T04:17:19.491Z,100
2022-08-05T04:18:22.667Z,100
2022-08-05T04:19:23.398Z,100
2022-08-05T04:20:24.667Z,100
2022-08-05T04:22:10.247Z,100
2022-08-05T04:22:28.017Z,100
2022-08-05T04:24:05.569Z,100
2022-08-05T04:24:31.559Z,100
2022-08-05T04:25:57.740Z,100
2022-08-05T04:26:35.045Z,100
2022-08-05T04:27:43.462Z,100
2022-08-05T04:28:38.450Z,100
2022-08-05T04:29:40.152Z,100
2022-08-05T04:30:42.967Z,100
2022-08-05T04:31:43.649Z,100
2022-08-05T04:32:45.529Z,100
2022-08-05T04:34:18.525Z,100
2022-08-05T04:34:48.875Z,100
2022-08-05T04:36:15.989Z,100
2022-08-05T04:36:52.445Z,100
2022-08-05T04:38:02.244Z,100
2022-08-05T04:38:55.850Z,100
2022-08-05T04:39:57.639Z,100
2022-08-05T04:40:59.257Z,100
2022-08-05T04:42:01.753Z,100
2022-08-05T04:43:02.855Z,100
2022-08-05T04:44:09.407Z,100
2022-08-05T04:45:06.253Z,100
2022-08-05T04:46:07.983Z,100
2022-08-05T04:47:10.493Z,100
2022-08-05T04:48:18.588Z,100
2022-08-05T04:49:14.932Z,100
2022-08-05T04:50:14.865Z,100
2022-08-05T04:51:16.759Z,100
2022-08-05T04:52:18.654Z,100
2022-08-05T04:53:20.112Z,100
2022-08-05T04:54:21.803Z,100
2022-08-05T04:56:15.216Z,100
2022-08-05T04:56:33.657Z,100
2022-08-05T04:57:28.655Z,100
2022-08-05T04:58:28.740Z,100
2022-08-05T04:59:38.340Z,100
2022-08-05T05:00:32.250Z,100
2022-08-05T05:02:07.351Z,100
2022-08-05T05:02:41.937Z,100
2022-08-05T05:03:41.835Z,100
2022-08-05T05:04:47.902Z,100
2022-08-05T05:06:39.187Z,100
2022-08-05T05:06:49.315Z,100
2022-08-05T05:07:52.761Z,100
2022-08-05T05:08:46.098Z,100
2022-08-05T05:09:47.840Z,100
2022-08-05T05:10:56.191Z,100
2022-08-05T05:11:54.457Z,100
2022-08-05T05:12:53.189Z,100
2022-08-05T05:13:55.300Z,100
2022-08-05T05:14:56.597Z,100
2022-08-05T05:16:02.309Z,100
2022-08-05T05:17:00.016Z,100
2022-08-05T05:18:02.224Z,100
2022-08-05T05:19:19.054Z,100
2022-08-05T05:20:05.384Z,100
2022-08-05T05:21:06.906Z,100
2022-08-05T05:22:23.591Z,100
2022-08-05T05:23:19.836Z,100
2022-08-05T05:24:12.251Z,100
2022-08-05T05:25:16.393Z,100
2022-08-05T05:26:15.738Z,100
2022-08-05T05:27:17.377Z,100
2022-08-05T05:28:19.188Z,100
2022-08-05T05:29:20.785Z,100
2022-08-05T05:30:30.616Z,100
2022-08-05T05:31:24.263Z,100
2022-08-05T05:32:26.032Z,100
2022-08-05T05:33:27.750Z,100
2022-08-05T05:34:29.518Z,100
2022-08-05T05:35:34.294Z,100
2022-08-05T05:36:33.127Z,100
2022-08-05T05:37:58.892Z,100
2022-08-05T05:38:36.403Z,100
2022-08-05T05:39:38.229Z,100
2022-08-05T05:40:43.869Z,100
2022-08-05T05:41:41.775Z,100
2022-08-05T05:42:43.329Z,100
2022-08-05T05:43:58.392Z,100
2022-08-05T05:44:46.808Z,100
2022-08-05T05:45:48.676Z,100
2022-08-05T05:46:51.178Z,100
2022-08-05T05:48:06.062Z,100
2022-08-05T05:48:53.890Z,100
2022-08-05T05:49:56.930Z,100
2022-08-05T05:50:57.239Z,100
2022-08-05T05:51:58.941Z,100
2022-08-05T05:53:00.896Z,100
2022-08-05T05:54:02.514Z,100
2022-08-05T05:55:07.501Z,100
2022-08-05T05:56:05.870Z,100
2022-08-05T05:57:10.707Z,100
2022-08-05T05:58:09.353Z,100
2022-08-05T05:59:11.207Z,100
2022-08-05T06:00:12.843Z,100
2022-08-05T06:01:15.341Z,100
2022-08-05T06:02:16.411Z,100
2022-08-05T06:03:40.277Z,100
2022-08-05T06:04:19.834Z,100
2022-08-05T06:05:21.686Z,100
2022-08-05T06:06:27.690Z,100
2022-08-05T06:07:41.622Z,100
2022-08-05T06:08:32.745Z,100
2022-08-05T06:10:00.107Z,100
2022-08-05T06:10:36.499Z,100
2022-08-05T06:11:32.017Z,100
2022-08-05T06:12:33.637Z,100
2022-08-05T06:13:40.549Z,100
2022-08-05T06:14:37.111Z,100
2022-08-05T06:16:27.533Z,100
2022-08-05T06:16:40.567Z,100
2022-08-05T06:17:52.898Z,100
2022-08-05T06:18:44.036Z,100
2022-08-05T06:19:56.907Z,100
2022-08-05T06:20:47.904Z,100
2022-08-05T06:21:49.913Z,100
2022-08-05T06:22:51.148Z,100
2022-08-05T06:23:52.843Z,100
2022-08-05T06:24:54.452Z,100
2022-08-05T06:26:13.909Z,100
2022-08-05T06:26:58.043Z,100
2022-08-05T06:28:10.871Z,100
2022-08-05T06:29:03.453Z,100
2022-08-05T06:30:17.880Z,100
2022-08-05T06:31:11.212Z,100
2022-08-05T06:32:17.301Z,100
2022-08-05T06:33:09.985Z,100
2022-08-05T06:34:10.237Z,100
2022-08-05T06:35:21.847Z,100
2022-08-05T06:36:13.658Z,100
2022-08-05T06:37:15.411Z,100
2022-08-05T06:38:17.056Z,100
2022-08-05T06:39:18.857Z,100
2022-08-05T06:40:21.229Z,100
2022-08-05T06:41:22.319Z,100
2022-08-05T06:42:23.961Z,100
2022-08-05T06:43:57.633Z,100
2022-08-05T06:44:27.496Z,100
2022-08-05T06:45:44.862Z,100
2022-08-05T06:46:30.897Z,100
2022-08-05T06:48:36.839Z,100
2022-08-05T06:48:52.843Z,100
2022-08-05T06:50:01.899Z,100
2022-08-05T06:50:37.821Z,100
2022-08-05T06:51:40.802Z,100
2022-08-05T06:52:41.297Z,100
2022-08-05T06:53:43.045Z,100
2022-08-05T06:54:44.757Z,100
2022-08-05T06:55:46.550Z,100
2022-08-05T06:56:54.820Z,100
2022-08-05T06:57:58.199Z,100
2022-08-05T06:58:51.704Z,100
2022-08-05T06:59:54.998Z,100
2022-08-05T07:00:55.294Z,100
2022-08-05T07:01:56.926Z,100
2022-08-05T07:02:58.821Z,100
2022-08-05T07:04:00.681Z,100
2022-08-05T07:05:02.127Z,100
2022-08-05T07:06:06.294Z,100
2022-08-05T07:07:07.885Z,100
2022-08-05T07:08:10.955Z,100
2022-08-05T07:09:09.063Z,100
2022-08-05T07:10:10.898Z,100
2022-08-05T07:11:15.206Z,100
2022-08-05T07:12:14.254Z,100
2022-08-05T07:13:15.996Z,100
2022-08-05T07:14:28.899Z,100
2022-08-05T07:15:34.470Z,100
2022-08-05T07:18:00.629Z,100
2022-08-05T07:18:01.692Z,100
2022-08-05T07:18:29.217Z,100
2022-08-05T07:19:58.004Z,100
2022-08-05T07:20:33.343Z,100
2022-08-05T07:21:39.960Z,100
2022-08-05T07:22:31.614Z,100
2022-08-05T07:23:33.333Z,100
2022-08-05T07:24:43.777Z,100
2022-08-05T07:25:55.120Z,100
2022-08-05T07:26:38.556Z,100
2022-08-05T07:27:58.398Z,100
2022-08-05T07:28:42.086Z,100
2022-08-05T07:30:24.043Z,100
2022-08-05T07:30:50.991Z,100
2022-08-05T07:31:55.027Z,100
2022-08-05T07:32:51.030Z,100
2022-08-05T07:33:50.758Z,100
2022-08-05T07:34:52.422Z,100
2022-08-05T07:36:02.709Z,100
2022-08-05T07:36:55.891Z,100
2022-08-05T07:37:57.613Z,100
2022-08-05T07:38:59.406Z,100
2022-08-05T07:40:04.031Z,100
2022-08-05T07:42:08.234Z,100
2022-08-05T07:42:14.747Z,100
2022-08-05T07:43:20.472Z,100
2022-08-05T07:44:14.424Z,100
2022-08-05T07:45:09.765Z,100
2022-08-05T07:46:24.285Z,100
2022-08-05T07:47:14.059Z,100
2022-08-05T07:48:14.963Z,100
2022-08-05T07:49:18.298Z,100
2022-08-05T07:50:18.481Z,100
2022-08-05T07:51:23.784Z,100
2022-08-05T07:52:21.892Z,100
2022-08-05T07:53:23.676Z,100
2022-08-05T07:54:26.648Z,100
2022-08-05T07:56:05.121Z,100
2022-08-05T07:56:39.069Z,100
2022-08-05T07:57:52.326Z,100
2022-08-05T07:58:57.544Z,100
2022-08-05T07:59:39.910Z,100
2022-08-05T08:00:35.787Z,100
2022-08-05T08:01:41.579Z,100
2022-08-05T08:03:14.229Z,100
2022-08-05T08:03:44.700Z,100
2022-08-05T08:04:42.873Z,100
2022-08-05T08:05:47.566Z,100
2022-08-05T08:06:46.278Z,100
2022-08-05T08:07:59.617Z,100
2022-08-05T08:08:49.670Z,100
2022-08-05T08:09:52.316Z,100
2022-08-05T08:10:53.158Z,100
2022-08-05T08:12:00.173Z,100
2022-08-05T08:12:58.541Z,100
2022-08-05T08:14:00.758Z,100
2022-08-05T08:15:02.011Z,100
2022-08-05T08:16:50.322Z,99.48
2022-08-05T08:17:03.573Z,96.79
2022-08-05T08:18:09.709Z,96.79
2022-08-05T08:19:07.045Z,96.86
2022-08-05T08:20:22.791Z,96.68
2022-08-05T08:21:15.810Z,98.71
2022-08-05T08:22:12.222Z,95.95
2022-08-05T08:24:02.765Z,94.65
2022-08-05T08:24:15.689Z,95.76
2022-08-05T08:25:17.851Z,96.17
2022-08-05T08:26:27.025Z,97.06
2022-08-05T08:27:21.010Z,96.82
2022-08-05T08:28:36.259Z,97.1
2022-08-05T08:30:04.705Z,95.76
2022-08-05T08:30:32.752Z,96.96
2022-08-05T08:31:27.852Z,97.84
2022-08-05T08:32:29.638Z,98.83
2022-08-05T08:33:37.834Z,95.4
2022-08-05T08:34:33.320Z,94.68
2022-08-05T08:35:41.443Z,97.33
2022-08-05T08:36:50.521Z,97.06
2022-08-05T08:37:38.253Z,94.67
2022-08-05T08:38:40.095Z,94.61
2022-08-05T08:39:49.479Z,93.47
2022-08-05T08:40:50.438Z,94.39
2022-08-05T08:41:52.050Z,96.42
2022-08-05T08:42:50.451Z,93.87
2022-08-05T08:45:18.820Z,92.49
2022-08-05T08:45:23.212Z,93.55
2022-08-05T08:45:52.119Z,92.92
2022-08-05T08:46:53.870Z,90.37
2022-08-05T08:48:12.865Z,88.62
2022-08-05T08:49:06.173Z,89.59
2022-08-05T08:50:13.223Z,90.73
2022-08-05T08:51:07.675Z,92.23
2022-08-05T08:52:13.185Z,91.14
2022-08-05T08:53:08.136Z,92.44
2022-08-05T08:54:06.022Z,92.52
2022-08-05T08:55:13.053Z,91.96
2022-08-05T08:56:09.546Z,93.22
2022-08-05T08:57:11.857Z,94.05
2022-08-05T08:58:13.353Z,94.06
2022-08-05T08:59:19.345Z,91.67
2022-08-05T09:00:16.435Z,92.27
2022-08-05T09:01:18.769Z,91.46
2022-08-05T09:02:20.038Z,94.11
2022-08-05T09:03:21.619Z,91.67
2022-08-05T09:04:23.344Z,92.68
2022-08-05T09:05:38.864Z,91.91
2022-08-05T09:06:29.279Z,91.48
2022-08-05T09:07:39.411Z,90.3
2022-08-05T09:08:30.447Z,90.35
2022-08-05T09:09:32.493Z,90.01
2022-08-05T09:10:33.787Z,91.15
2022-08-05T09:11:50.789Z,92.09
2022-08-05T09:12:37.223Z,90.62
2022-08-05T09:14:09.739Z,91.69
2022-08-05T09:14:56.545Z,92.51
2022-08-05T09:15:42.441Z,93.14
2022-08-05T09:16:48.595Z,95.07
2022-08-05T09:17:49.599Z,94.77
2022-08-05T09:18:47.636Z,95.9
2022-08-05T09:20:01.624Z,94.11
2022-08-05T09:20:51.187Z,94.49
2022-08-05T09:22:23.519Z,94.08
2022-08-05T09:22:54.672Z,94.08
2022-08-05T09:24:00.662Z,96.75
2022-08-05T09:24:58.127Z,98.37
2022-08-05T09:26:06.091Z,98.52
2022-08-05T09:27:01.499Z,98.08
2022-08-05T09:28:06.473Z,98.65
2022-08-05T09:29:04.974Z,100
2022-08-05T09:30:07.054Z,100
2022-08-05T09:31:23.283Z,100
2022-08-05T09:32:40.727Z,100
2022-08-05T09:33:15.296Z,99.88
2022-08-05T09:34:13.666Z,100
2022-08-05T09:35:26.775Z,100
2022-08-05T09:36:17.127Z,100
2022-08-05T09:37:18.846Z,100
2022-08-05T09:38:27.429Z,100
2022-08-05T09:39:22.546Z,100
2022-08-05T09:40:24.124Z,100
2022-08-05T09:41:25.880Z,100
2022-08-05T09:42:28.447Z,100
2022-08-05T09:43:41.158Z,100
2022-08-05T09:44:31.000Z,100
2022-08-05T09:46:07.169Z,100
2022-08-05T09:46:34.938Z,100
2022-08-05T09:47:55.398Z,99.81
2022-08-05T09:48:37.942Z,100
2022-08-05T09:49:40.394Z,100
2022-08-05T09:50:44.121Z,100
2022-08-05T09:51:43.150Z,100
2022-08-05T09:52:45.389Z,100
2022-08-05T09:53:54.380Z,100
2022-08-05T09:54:48.454Z,99.94
2022-08-05T09:55:57.571Z,99.53
2022-08-05T09:56:52.504Z,100
2022-08-05T09:57:54.367Z,100
2022-08-05T09:58:55.378Z,99.47
2022-08-05T09:59:57.016Z,99.58
2022-08-05T10:00:58.740Z,98.24
2022-08-05T10:02:00.687Z,98.26
2022-08-05T10:03:02.298Z,97.78
2022-08-05T10:04:03.952Z,97.15
2022-08-05T10:05:05.852Z,98.65
2022-08-05T10:06:14.706Z,98.99
2022-08-05T10:07:20.281Z,96.33
2022-08-05T10:08:37.510Z,97.12
2022-08-05T10:09:24.974Z,96.08
2022-08-05T10:10:15.752Z,94.33
2022-08-05T10:11:16.089Z,94.63
2022-08-05T10:12:30.591Z,93.08
2022-08-05T10:13:19.562Z,91.63
2022-08-05T10:14:21.399Z,91.97
2022-08-05T10:15:23.019Z,91.83
2022-08-05T10:16:24.758Z,91.21
2022-08-05T10:17:37.920Z,91.17
2022-08-05T10:18:28.225Z,91.9
2022-08-05T10:19:59.166Z,92.5
2022-08-05T10:20:31.697Z,91.34
2022-08-05T10:21:35.186Z,92.79
2022-08-05T10:22:37.867Z,92.29
2022-08-05T10:23:59.087Z,92.01
2022-08-05T10:24:39.790Z,92.17
2022-08-05T10:25:40.372Z,90.16
2022-08-05T10:26:51.844Z,90.2
2022-08-05T10:28:12.666Z,90.56
2022-08-05T10:28:46.375Z,91.88
2022-08-05T10:30:06.387Z,90.77
2022-08-05T10:32:51.578Z,91.99
2022-08-05T10:32:54.224Z,92.66
2022-08-05T10:33:01.276Z,90.73
2022-08-05T10:33:54.788Z,90.62
2022-08-05T10:34:56.097Z,90.81
2022-08-05T10:35:59.290Z,89.59
2022-08-05T10:36:59.565Z,90.04
2022-08-05T10:38:01.184Z,89.61
2022-08-05T10:39:10.065Z,88.41
2022-08-05T10:40:18.089Z,89.11
2022-08-05T10:41:06.547Z,88.19
2022-08-05T10:42:08.427Z,88.6
2022-08-05T10:43:12.408Z,87.76
2022-08-05T10:44:11.677Z,88.03
2022-08-05T10:45:23.248Z,87.48
2022-08-05T10:46:15.079Z,87.89
2022-08-05T10:47:26.910Z,87.32
2022-08-05T10:48:30.201Z,89.21
2022-08-05T10:49:27.207Z,90.04
2022-08-05T10:50:36.310Z,88.22
2022-08-05T10:51:28.510Z,89.32
2022-08-05T10:52:25.729Z,89.73
2022-08-05T10:53:27.208Z,89.21
2022-08-05T10:54:31.115Z,90.33
2022-08-05T10:55:38.451Z,89.53
2022-08-05T10:56:32.420Z,89.36
2022-08-05T10:57:34.970Z,91.88
2022-08-05T10:58:49.482Z,92.67
2022-08-05T11:00:04.466Z,91.63
2022-08-05T11:00:43.935Z,92.88
2022-08-05T11:01:55.081Z,91.23
2022-08-05T11:02:43.725Z,91.4
2022-08-05T11:03:44.613Z,92.04
2022-08-05T11:04:46.545Z,91.59
2022-08-05T11:05:49.519Z,91.08
2022-08-05T11:06:50.019Z,92.23
2022-08-05T11:08:02.864Z,92.7
2022-08-05T11:08:53.232Z,92.85
2022-08-05T11:10:04.029Z,92.43
2022-08-05T11:11:00.859Z,93.62
2022-08-05T11:11:58.440Z,92.57
2022-08-05T11:13:01.148Z,93.54
2022-08-05T11:14:01.903Z,92.78
2022-08-05T11:15:19.842Z,92.61
2022-08-05T11:16:05.474Z,93.23
2022-08-05T11:18:07.342Z,92.96
2022-08-05T11:18:09.674Z,91.58
2022-08-05T11:20:10.844Z,92.35
2022-08-05T11:20:18.329Z,91.23
2022-08-05T11:21:14.062Z,94.62
2022-08-05T11:22:15.920Z,93.24
2022-08-05T11:23:17.522Z,91.36
2022-08-05T11:24:29.959Z,90.95
2022-08-05T11:26:05.371Z,92.07
2022-08-05T11:26:32.206Z,88.6
2022-08-05T11:27:24.733Z,89.53
2022-08-05T11:28:26.806Z,89.17
2022-08-05T11:29:27.922Z,89.14
2022-08-05T11:30:29.694Z,88.5
2022-08-05T11:31:57.800Z,90.6
2022-08-05T11:32:33.284Z,90.43
2022-08-05T11:33:46.118Z,91.2
2022-08-05T11:34:36.613Z,88.35
2022-08-05T11:35:38.327Z,87.67
2022-08-05T11:36:42.734Z,87.37
2022-08-05T11:38:30.407Z,86
2022-08-05T11:38:45.700Z,86.17
2022-08-05T11:39:48.229Z,84.6
2022-08-05T11:40:47.017Z,87.13
2022-08-05T11:42:01.648Z,85.62
2022-08-05T11:42:50.459Z,85.92
2022-08-05T11:44:06.291Z,83.16
2022-08-05T11:44:54.428Z,81.23
2022-08-05T11:46:27.263Z,81.46
2022-08-05T11:46:58.385Z,83.98
2022-08-05T11:47:59.318Z,82.51
2022-08-05T11:49:00.885Z,80.09
2022-08-05T11:50:02.628Z,79.55
2022-08-05T11:51:05.508Z,79.82
2022-08-05T11:52:08.673Z,81.61
2022-08-05T11:53:09.855Z,80.88
2022-08-05T11:54:09.540Z,79.71
2022-08-05T11:55:11.279Z,79.57
2022-08-05T11:56:13.026Z,79.05
2022-08-05T11:57:25.275Z,78.63
2022-08-05T11:58:17.435Z,80.02
2022-08-05T11:59:21.351Z,82.45
2022-08-05T12:00:19.954Z,80.5
2022-08-05T12:01:21.694Z,79.11
2022-08-05T12:02:23.884Z,80.19
2022-08-05T12:03:31.314Z,80.46
2022-08-05T12:04:26.892Z,78.71
2022-08-05T12:05:32.156Z,79.77
2022-08-05T12:06:30.511Z,79.2
2022-08-05T12:08:03.274Z,78.82
2022-08-05T12:08:33.863Z,79.06
2022-08-05T12:09:38.676Z,77.91
2022-08-05T12:10:43.363Z,78.15
2022-08-05T12:11:40.535Z,77.55
2022-08-05T12:12:59.942Z,77.18
2022-08-05T12:13:48.620Z,77.83
2022-08-05T12:14:47.298Z,78.25
2022-08-05T12:15:49.910Z,77.81
2022-08-05T12:16:47.723Z,78.04
2022-08-05T12:18:03.669Z,77.57
2022-08-05T12:18:53.101Z,76.19
2022-08-05T12:20:26.512Z,77.44
2022-08-05T12:20:54.770Z,77.43
2022-08-05T12:21:56.409Z,77.35
2022-08-05T12:22:58.117Z,77.16
2022-08-05T12:24:04.526Z,76.85
2022-08-05T12:25:01.830Z,76.61
2022-08-05T12:26:04.341Z,77.55
2022-08-05T12:27:09.757Z,77.74
2022-08-05T12:28:06.783Z,79.77
2022-08-05T12:29:09.334Z,78.37
2022-08-05T12:30:10.269Z,79.43
2022-08-05T12:31:12.142Z,77.81
2022-08-05T12:32:14.013Z,79.96
2022-08-05T12:33:27.259Z,78.63
2022-08-05T12:34:20.428Z,78.87
2022-08-05T12:35:21.912Z,77.66
2022-08-05T12:36:20.762Z,77.09
2022-08-05T12:37:22.519Z,77.57
2022-08-05T12:38:30.251Z,78.13
2022-08-05T12:39:34.562Z,77.75
2022-08-05T12:40:29.634Z,77.39
2022-08-05T12:41:34.432Z,76.67
2022-08-05T12:42:31.058Z,75.93
2022-08-05T12:43:32.869Z,76.75
2022-08-05T12:44:34.580Z,76.58
2022-08-05T12:45:42.750Z,76.14
2022-08-05T12:46:38.005Z,77.28
2022-08-05T12:47:43.498Z,76.73
2022-08-05T12:48:41.480Z,75.63
2022-08-05T12:50:03.421Z,76.42
2022-08-05T12:50:44.939Z,75.64
2022-08-05T12:52:12.897Z,77.49
2022-08-05T12:52:48.487Z,76.94
2022-08-05T12:53:55.947Z,75.88
2022-08-05T12:54:52.022Z,76.15
2022-08-05T12:55:53.744Z,76.67
2022-08-05T12:56:55.357Z,76.63
2022-08-05T12:58:52.425Z,76.31
2022-08-05T12:59:02.516Z,76.72
2022-08-05T13:01:56.868Z,76.78
2022-08-05T13:02:01.962Z,77.21
2022-08-05T13:02:07.375Z,76.45
2022-08-05T13:03:06.797Z,75.94
2022-08-05T13:04:07.670Z,76.67
2022-08-05T13:05:12.650Z,77.24
2022-08-05T13:06:11.734Z,75.85
2022-08-05T13:07:16.090Z,75.25
2022-08-05T13:08:14.498Z,74.42
2022-08-05T13:09:27.969Z,74.49
2022-08-05T13:10:20.258Z,75.45
2022-08-05T13:11:59.801Z,76.38
2022-08-05T13:12:21.382Z,76.24
2022-08-05T13:14:05.714Z,76.87
2022-08-05T13:14:36.522Z,78.48
2022-08-05T13:15:41.102Z,77.37
2022-08-05T13:16:28.329Z,79.27
2022-08-05T13:17:31.889Z,80.17
2022-08-05T13:18:31.795Z,80.87
2022-08-05T13:19:51.916Z,82.55
2022-08-05T13:20:35.268Z,83.87
2022-08-05T13:21:38.053Z,84.61
2022-08-05T13:22:38.864Z,84.03
2022-08-05T13:23:50.398Z,84.91
2022-08-05T13:24:57.186Z,86.33
2022-08-05T13:25:51.650Z,88.55
2022-08-05T13:26:50.570Z,89.82
2022-08-05T13:27:50.410Z,94.04
2022-08-05T13:28:49.181Z,97.91
2022-08-05T13:30:31.639Z,100
2022-08-05T13:30:53.415Z,100
2022-08-05T13:32:04.847Z,100
2022-08-05T13:32:56.499Z,100
2022-08-05T13:34:23.914Z,100
2022-08-05T13:34:59.579Z,100
2022-08-05T13:36:01.963Z,100
2022-08-05T13:37:03.111Z,100
2022-08-05T13:38:06.030Z,100
2022-08-05T13:39:24.167Z,100
2022-08-05T13:40:15.063Z,100
2022-08-05T13:41:10.106Z,100
2022-08-05T13:42:14.531Z,100
2022-08-05T13:43:13.408Z,100
2022-08-05T13:44:15.166Z,100
2022-08-05T13:45:21.451Z,100